sensor_id;sensor_type;location;lat;lon;timestamp;P1;durP1;ratioP1;P2;durP2;ratioP2
48777;SDS011;34578;0.000;0.000;2023-02-25T00:03:10;12.05;;;8.50;;
48777;SDS011;34578;0.000;0.000;2023-02-25T00:08:11;11.90;;;8.32;;
48777;SDS011;34578;0.000;0.000;2023-02-25T00:13:11;13.43;;;8.35;;
48777;SDS011;34578;0.000;0.000;2023-02-25T00:18:12;13.43;;;8.57;;
48777;SDS011;34578;0.000;0.000;2023-02-25T00:23:12;14.40;;;9.30;;
48777;SDS011;34578;0.000;0.000;2023-02-25T00:28:12;13.73;;;8.70;;
48777;SDS011;34578;0.000;0.000;2023-02-25T00:33:13;13.05;;;8.77;;
48777;SDS011;34578;0.000;0.000;2023-02-25T00:38:14;11.23;;;7.60;;
48777;SDS011;34578;0.000;0.000;2023-02-25T00:43:14;17.17;;;9.82;;
48777;SDS011;34578;0.000;0.000;2023-02-25T00:48:14;16.80;;;10.20;;
48777;SDS011;34578;0.000;0.000;2023-02-25T00:53:15;14.23;;;8.33;;
48777;SDS011;34578;0.000;0.000;2023-02-25T00:58:15;13.27;;;8.27;;
48777;SDS011;34578;0.000;0.000;2023-02-25T01:03:15;16.97;;;8.97;;
48777;SDS011;34578;0.000;0.000;2023-02-25T01:08:17;12.70;;;7.43;;
48777;SDS011;34578;0.000;0.000;2023-02-25T01:13:18;13.38;;;7.90;;
48777;SDS011;34578;0.000;0.000;2023-02-25T01:18:21;11.82;;;7.82;;
48777;SDS011;34578;0.000;0.000;2023-02-25T01:23:21;14.10;;;7.77;;
48777;SDS011;34578;0.000;0.000;2023-02-25T01:28:22;12.93;;;8.35;;
48777;SDS011;34578;0.000;0.000;2023-02-25T01:33:24;11.02;;;7.65;;
48777;SDS011;34578;0.000;0.000;2023-02-25T01:38:25;13.30;;;8.20;;
48777;SDS011;34578;0.000;0.000;2023-02-25T01:43:26;13.70;;;7.80;;
48777;SDS011;34578;0.000;0.000;2023-02-25T01:48:30;12.23;;;7.03;;
48777;SDS011;34578;0.000;0.000;2023-02-25T01:53:42;13.20;;;8.07;;
48777;SDS011;34578;0.000;0.000;2023-02-25T01:58:46;13.85;;;8.45;;
48777;SDS011;34578;0.000;0.000;2023-02-25T02:03:48;15.73;;;7.93;;
48777;SDS011;34578;0.000;0.000;2023-02-25T02:08:51;14.65;;;8.32;;
48777;SDS011;34578;0.000;0.000;2023-02-25T02:13:54;10.07;;;6.90;;
48777;SDS011;34578;0.000;0.000;2023-02-25T02:18:57;8.43;;;6.22;;
48777;SDS011;34578;0.000;0.000;2023-02-25T02:24:28;11.23;;;7.05;;
48777;SDS011;34578;0.000;0.000;2023-02-25T02:35:20;12.90;;;7.18;;
48777;SDS011;34578;0.000;0.000;2023-02-25T02:50:39;13.30;;;7.18;;
48777;SDS011;34578;0.000;0.000;2023-02-25T02:55:45;11.73;;;7.22;;
48777;SDS011;34578;0.000;0.000;2023-02-25T03:00:52;9.80;;;6.30;;
48777;SDS011;34578;0.000;0.000;2023-02-25T03:05:57;11.88;;;7.18;;
48777;SDS011;34578;0.000;0.000;2023-02-25T03:10:58;11.60;;;7.63;;
48777;SDS011;34578;0.000;0.000;2023-02-25T03:15:59;11.15;;;7.28;;
48777;SDS011;34578;0.000;0.000;2023-02-25T03:21:04;11.40;;;6.95;;
48777;SDS011;34578;0.000;0.000;2023-02-25T03:26:28;10.68;;;6.03;;
48777;SDS011;34578;0.000;0.000;2023-02-25T03:31:36;11.23;;;6.75;;
48777;SDS011;34578;0.000;0.000;2023-02-25T03:36:51;10.43;;;6.95;;
48777;SDS011;34578;0.000;0.000;2023-02-25T03:41:57;12.40;;;8.27;;
48777;SDS011;34578;0.000;0.000;2023-02-25T03:47:01;10.43;;;5.93;;
48777;SDS011;34578;0.000;0.000;2023-02-25T03:52:03;8.75;;;5.78;;
48777;SDS011;34578;0.000;0.000;2023-02-25T03:57:11;10.20;;;6.45;;
48777;SDS011;34578;0.000;0.000;2023-02-25T04:02:11;8.37;;;5.93;;
48777;SDS011;34578;0.000;0.000;2023-02-25T04:07:14;7.72;;;5.88;;
48777;SDS011;34578;0.000;0.000;2023-02-25T04:12:15;11.30;;;5.65;;
48777;SDS011;34578;0.000;0.000;2023-02-25T04:17:15;8.97;;;5.83;;
48777;SDS011;34578;0.000;0.000;2023-02-25T04:22:16;11.80;;;6.78;;
48777;SDS011;34578;0.000;0.000;2023-02-25T04:27:16;10.32;;;6.15;;
48777;SDS011;34578;0.000;0.000;2023-02-25T04:32:16;14.53;;;6.70;;
48777;SDS011;34578;0.000;0.000;2023-02-25T04:37:17;9.48;;;5.97;;
48777;SDS011;34578;0.000;0.000;2023-02-25T04:42:17;8.45;;;5.07;;
48777;SDS011;34578;0.000;0.000;2023-02-25T04:47:18;9.57;;;5.47;;
48777;SDS011;34578;0.000;0.000;2023-02-25T04:52:18;11.17;;;5.57;;
48777;SDS011;34578;0.000;0.000;2023-02-25T04:57:18;8.80;;;5.77;;
48777;SDS011;34578;0.000;0.000;2023-02-25T05:02:19;11.10;;;6.73;;
48777;SDS011;34578;0.000;0.000;2023-02-25T05:07:19;10.20;;;5.50;;
48777;SDS011;34578;0.000;0.000;2023-02-25T05:12:20;9.10;;;5.27;;
48777;SDS011;34578;0.000;0.000;2023-02-25T05:17:20;7.27;;;5.00;;
48777;SDS011;34578;0.000;0.000;2023-02-25T05:22:20;10.17;;;5.40;;
48777;SDS011;34578;0.000;0.000;2023-02-25T05:27:21;12.32;;;5.85;;
48777;SDS011;34578;0.000;0.000;2023-02-25T05:32:22;11.17;;;5.60;;
48777;SDS011;34578;0.000;0.000;2023-02-25T05:37:22;8.73;;;4.90;;
48777;SDS011;34578;0.000;0.000;2023-02-25T05:42:23;8.97;;;4.97;;
48777;SDS011;34578;0.000;0.000;2023-02-25T05:47:23;6.20;;;4.18;;
48777;SDS011;34578;0.000;0.000;2023-02-25T05:52:23;9.07;;;5.63;;
48777;SDS011;34578;0.000;0.000;2023-02-25T05:57:24;6.18;;;4.47;;
48777;SDS011;34578;0.000;0.000;2023-02-25T06:02:24;6.53;;;4.72;;
48777;SDS011;34578;0.000;0.000;2023-02-25T06:07:27;8.43;;;5.00;;
48777;SDS011;34578;0.000;0.000;2023-02-25T06:12:30;10.02;;;5.60;;
48777;SDS011;34578;0.000;0.000;2023-02-25T06:17:32;6.50;;;4.53;;
48777;SDS011;34578;0.000;0.000;2023-02-25T06:22:32;8.47;;;4.80;;
48777;SDS011;34578;0.000;0.000;2023-02-25T06:27:32;8.18;;;5.18;;
48777;SDS011;34578;0.000;0.000;2023-02-25T06:32:33;5.60;;;4.20;;
48777;SDS011;34578;0.000;0.000;2023-02-25T06:37:33;7.03;;;4.47;;
48777;SDS011;34578;0.000;0.000;2023-02-25T06:42:33;7.43;;;4.77;;
48777;SDS011;34578;0.000;0.000;2023-02-25T06:47:34;8.07;;;4.60;;
48777;SDS011;34578;0.000;0.000;2023-02-25T06:52:34;6.37;;;3.53;;
48777;SDS011;34578;0.000;0.000;2023-02-25T06:57:35;6.60;;;4.40;;
48777;SDS011;34578;0.000;0.000;2023-02-25T07:02:35;7.93;;;3.90;;
48777;SDS011;34578;0.000;0.000;2023-02-25T07:07:36;5.28;;;3.58;;
48777;SDS011;34578;0.000;0.000;2023-02-25T07:12:36;5.33;;;3.60;;
48777;SDS011;34578;0.000;0.000;2023-02-25T07:17:36;5.15;;;3.60;;
48777;SDS011;34578;0.000;0.000;2023-02-25T07:22:37;4.60;;;3.53;;
48777;SDS011;34578;0.000;0.000;2023-02-25T07:27:41;5.33;;;3.93;;
48777;SDS011;34578;0.000;0.000;2023-02-25T07:32:42;4.78;;;3.70;;
48777;SDS011;34578;0.000;0.000;2023-02-25T07:37:42;4.43;;;3.42;;
48777;SDS011;34578;0.000;0.000;2023-02-25T07:42:43;23.63;;;4.93;;
48777;SDS011;34578;0.000;0.000;2023-02-25T07:47:45;14.45;;;5.28;;
48777;SDS011;34578;0.000;0.000;2023-02-25T07:52:45;14.93;;;5.28;;
48777;SDS011;34578;0.000;0.000;2023-02-25T07:57:46;22.57;;;4.80;;
48777;SDS011;34578;0.000;0.000;2023-02-25T08:02:46;6.38;;;3.55;;
48777;SDS011;34578;0.000;0.000;2023-02-25T08:07:47;9.93;;;3.40;;
48777;SDS011;34578;0.000;0.000;2023-02-25T08:12:47;9.30;;;4.37;;
48777;SDS011;34578;0.000;0.000;2023-02-25T08:17:47;6.73;;;4.00;;
48777;SDS011;34578;0.000;0.000;2023-02-25T08:22:51;6.65;;;4.20;;
48777;SDS011;34578;0.000;0.000;2023-02-25T08:27:51;8.73;;;3.70;;
48777;SDS011;34578;0.000;0.000;2023-02-25T08:32:52;7.45;;;3.78;;
48777;SDS011;34578;0.000;0.000;2023-02-25T08:37:52;6.90;;;4.50;;
48777;SDS011;34578;0.000;0.000;2023-02-25T08:42:53;7.68;;;4.00;;
48777;SDS011;34578;0.000;0.000;2023-02-25T08:47:53;8.35;;;3.25;;
48777;SDS011;34578;0.000;0.000;2023-02-25T08:52:56;8.65;;;5.03;;
48777;SDS011;34578;0.000;0.000;2023-02-25T08:57:57;9.77;;;4.45;;
48777;SDS011;34578;0.000;0.000;2023-02-25T09:02:57;10.87;;;4.07;;
48777;SDS011;34578;0.000;0.000;2023-02-25T09:07:57;16.93;;;5.30;;
48777;SDS011;34578;0.000;0.000;2023-02-25T09:12:58;18.43;;;3.63;;
48777;SDS011;34578;0.000;0.000;2023-02-25T09:17:58;11.27;;;6.00;;
48777;SDS011;34578;0.000;0.000;2023-02-25T09:22:59;9.67;;;5.53;;
48777;SDS011;34578;0.000;0.000;2023-02-25T09:27:59;11.15;;;5.45;;
48777;SDS011;34578;0.000;0.000;2023-02-25T09:33:00;11.13;;;4.80;;
48777;SDS011;34578;0.000;0.000;2023-02-25T09:38:00;9.40;;;3.93;;
48777;SDS011;34578;0.000;0.000;2023-02-25T09:48:36;9.60;;;4.63;;
48777;SDS011;34578;0.000;0.000;2023-02-25T09:54:07;7.22;;;3.50;;
48777;SDS011;34578;0.000;0.000;2023-02-25T09:59:16;5.75;;;3.70;;
48777;SDS011;34578;0.000;0.000;2023-02-25T10:04:30;6.00;;;3.22;;
48777;SDS011;34578;0.000;0.000;2023-02-25T10:31:21;4.10;;;2.95;;
48777;SDS011;34578;0.000;0.000;2023-02-25T10:36:35;4.28;;;2.97;;
48777;SDS011;34578;0.000;0.000;2023-02-25T10:41:40;4.32;;;2.80;;
48777;SDS011;34578;0.000;0.000;2023-02-25T10:46:49;3.43;;;2.93;;
48777;SDS011;34578;0.000;0.000;2023-02-25T10:57:12;3.83;;;2.50;;
48777;SDS011;34578;0.000;0.000;2023-02-25T11:02:17;4.10;;;2.92;;
48777;SDS011;34578;0.000;0.000;2023-02-25T11:07:30;3.58;;;2.50;;
48777;SDS011;34578;0.000;0.000;2023-02-25T11:12:38;4.00;;;2.83;;
48777;SDS011;34578;0.000;0.000;2023-02-25T11:23:05;8.50;;;3.30;;
48777;SDS011;34578;0.000;0.000;2023-02-25T11:28:19;4.63;;;2.60;;
48777;SDS011;34578;0.000;0.000;2023-02-25T11:33:32;6.18;;;3.10;;
48777;SDS011;34578;0.000;0.000;2023-02-25T11:38:36;3.22;;;2.35;;
48777;SDS011;34578;0.000;0.000;2023-02-25T11:43:40;3.85;;;2.40;;
48777;SDS011;34578;0.000;0.000;2023-02-25T11:48:45;6.53;;;2.50;;
48777;SDS011;34578;0.000;0.000;2023-02-25T12:15:47;3.42;;;1.90;;
48777;SDS011;34578;0.000;0.000;2023-02-25T12:47:23;4.20;;;1.55;;
48777;SDS011;34578;0.000;0.000;2023-02-25T13:14:37;3.10;;;1.90;;
48777;SDS011;34578;0.000;0.000;2023-02-25T13:25:30;3.25;;;1.38;;
48777;SDS011;34578;0.000;0.000;2023-02-25T13:41:37;3.05;;;1.48;;
48777;SDS011;34578;0.000;0.000;2023-02-25T14:25:02;4.90;;;1.38;;
48777;SDS011;34578;0.000;0.000;2023-02-25T14:35:40;3.33;;;1.38;;
48777;SDS011;34578;0.000;0.000;2023-02-25T14:57:28;4.97;;;1.42;;
48777;SDS011;34578;0.000;0.000;2023-02-25T15:13:32;2.40;;;1.38;;
48777;SDS011;34578;0.000;0.000;2023-02-25T15:19:05;3.08;;;1.50;;
48777;SDS011;34578;0.000;0.000;2023-02-25T15:24:10;2.00;;;1.07;;
48777;SDS011;34578;0.000;0.000;2023-02-25T15:34:36;4.50;;;1.60;;
48777;SDS011;34578;0.000;0.000;2023-02-25T15:44:41;3.05;;;1.55;;
48777;SDS011;34578;0.000;0.000;2023-02-25T15:49:43;3.20;;;1.58;;
48777;SDS011;34578;0.000;0.000;2023-02-25T15:54:46;2.58;;;1.50;;
48777;SDS011;34578;0.000;0.000;2023-02-25T15:59:49;4.00;;;1.70;;
48777;SDS011;34578;0.000;0.000;2023-02-25T16:05:01;4.82;;;2.47;;
48777;SDS011;34578;0.000;0.000;2023-02-25T16:15:31;6.38;;;1.90;;
48777;SDS011;34578;0.000;0.000;2023-02-25T16:20:57;4.65;;;1.92;;
48777;SDS011;34578;0.000;0.000;2023-02-25T16:31:28;3.00;;;1.30;;
48777;SDS011;34578;0.000;0.000;2023-02-25T16:36:38;2.55;;;1.52;;
48777;SDS011;34578;0.000;0.000;2023-02-25T16:41:44;2.35;;;1.45;;
48777;SDS011;34578;0.000;0.000;2023-02-25T16:46:47;8.40;;;2.85;;
48777;SDS011;34578;0.000;0.000;2023-02-25T16:51:50;4.15;;;1.65;;
48777;SDS011;34578;0.000;0.000;2023-02-25T16:56:55;3.35;;;2.00;;
48777;SDS011;34578;0.000;0.000;2023-02-25T17:02:00;5.20;;;2.57;;
48777;SDS011;34578;0.000;0.000;2023-02-25T17:07:16;4.75;;;1.90;;
48777;SDS011;34578;0.000;0.000;2023-02-25T17:12:27;4.53;;;2.50;;
48777;SDS011;34578;0.000;0.000;2023-02-25T17:17:34;4.60;;;2.45;;
48777;SDS011;34578;0.000;0.000;2023-02-25T17:22:37;3.97;;;2.22;;
48777;SDS011;34578;0.000;0.000;2023-02-25T17:27:39;4.18;;;2.50;;
48777;SDS011;34578;0.000;0.000;2023-02-25T17:32:39;4.10;;;2.60;;
48777;SDS011;34578;0.000;0.000;2023-02-25T17:37:40;2.73;;;2.03;;
48777;SDS011;34578;0.000;0.000;2023-02-25T17:42:40;6.00;;;2.58;;
48777;SDS011;34578;0.000;0.000;2023-02-25T17:47:41;3.75;;;2.97;;
48777;SDS011;34578;0.000;0.000;2023-02-25T17:52:42;5.85;;;2.67;;
48777;SDS011;34578;0.000;0.000;2023-02-25T17:57:55;4.00;;;2.60;;
48777;SDS011;34578;0.000;0.000;2023-02-25T18:03:10;4.30;;;2.67;;
48777;SDS011;34578;0.000;0.000;2023-02-25T18:08:16;4.90;;;2.58;;
48777;SDS011;34578;0.000;0.000;2023-02-25T18:13:25;4.18;;;3.08;;
48777;SDS011;34578;0.000;0.000;2023-02-25T18:18:34;6.40;;;2.72;;
48777;SDS011;34578;0.000;0.000;2023-02-25T18:23:35;4.00;;;2.42;;
48777;SDS011;34578;0.000;0.000;2023-02-25T18:28:35;4.85;;;2.40;;
48777;SDS011;34578;0.000;0.000;2023-02-25T18:33:36;4.03;;;2.53;;
48777;SDS011;34578;0.000;0.000;2023-02-25T18:38:36;4.63;;;2.40;;
48777;SDS011;34578;0.000;0.000;2023-02-25T18:43:40;3.65;;;2.13;;
48777;SDS011;34578;0.000;0.000;2023-02-25T18:48:41;5.22;;;2.70;;
48777;SDS011;34578;0.000;0.000;2023-02-25T18:53:42;3.57;;;2.13;;
48777;SDS011;34578;0.000;0.000;2023-02-25T18:58:43;3.90;;;2.53;;
48777;SDS011;34578;0.000;0.000;2023-02-25T19:03:44;4.35;;;2.40;;
48777;SDS011;34578;0.000;0.000;2023-02-25T19:08:45;3.65;;;2.42;;
48777;SDS011;34578;0.000;0.000;2023-02-25T19:13:45;3.70;;;2.33;;
48777;SDS011;34578;0.000;0.000;2023-02-25T19:18:46;5.05;;;2.72;;
48777;SDS011;34578;0.000;0.000;2023-02-25T19:23:47;3.33;;;2.03;;
48777;SDS011;34578;0.000;0.000;2023-02-25T19:28:52;3.78;;;2.28;;
48777;SDS011;34578;0.000;0.000;2023-02-25T19:33:53;3.13;;;1.70;;
48777;SDS011;34578;0.000;0.000;2023-02-25T19:38:53;4.47;;;2.83;;
48777;SDS011;34578;0.000;0.000;2023-02-25T19:43:53;3.60;;;2.20;;
48777;SDS011;34578;0.000;0.000;2023-02-25T19:48:54;2.30;;;1.70;;
48777;SDS011;34578;0.000;0.000;2023-02-25T19:53:54;3.22;;;2.10;;
48777;SDS011;34578;0.000;0.000;2023-02-25T19:58:55;3.83;;;2.20;;
48777;SDS011;34578;0.000;0.000;2023-02-25T20:03:56;2.97;;;2.42;;
48777;SDS011;34578;0.000;0.000;2023-02-25T20:08:59;5.37;;;2.17;;
48777;SDS011;34578;0.000;0.000;2023-02-25T20:14:00;3.83;;;2.20;;
48777;SDS011;34578;0.000;0.000;2023-02-25T20:19:02;3.45;;;2.35;;
48777;SDS011;34578;0.000;0.000;2023-02-25T20:24:02;3.93;;;2.33;;
48777;SDS011;34578;0.000;0.000;2023-02-25T20:29:03;4.65;;;2.65;;
48777;SDS011;34578;0.000;0.000;2023-02-25T20:34:03;2.45;;;1.75;;
48777;SDS011;34578;0.000;0.000;2023-02-25T20:44:16;4.30;;;2.03;;
48777;SDS011;34578;0.000;0.000;2023-02-25T20:49:17;6.88;;;3.13;;
48777;SDS011;34578;0.000;0.000;2023-02-25T20:54:18;4.15;;;2.50;;
48777;SDS011;34578;0.000;0.000;2023-02-25T20:59:19;2.83;;;2.33;;
48777;SDS011;34578;0.000;0.000;2023-02-25T21:04:20;3.83;;;2.43;;
48777;SDS011;34578;0.000;0.000;2023-02-25T21:09:20;3.77;;;2.60;;
48777;SDS011;34578;0.000;0.000;2023-02-25T21:14:20;3.63;;;2.17;;
48777;SDS011;34578;0.000;0.000;2023-02-25T21:19:21;4.18;;;2.72;;
48777;SDS011;34578;0.000;0.000;2023-02-25T21:24:24;4.07;;;2.88;;
48777;SDS011;34578;0.000;0.000;2023-02-25T21:29:27;3.33;;;2.55;;
48777;SDS011;34578;0.000;0.000;2023-02-25T21:34:28;3.97;;;2.87;;
48777;SDS011;34578;0.000;0.000;2023-02-25T21:39:28;3.50;;;2.08;;
48777;SDS011;34578;0.000;0.000;2023-02-25T21:44:29;6.87;;;2.83;;
48777;SDS011;34578;0.000;0.000;2023-02-25T21:49:29;4.40;;;2.33;;
48777;SDS011;34578;0.000;0.000;2023-02-25T21:54:29;5.53;;;3.23;;
48777;SDS011;34578;0.000;0.000;2023-02-25T21:59:30;4.32;;;2.53;;
48777;SDS011;34578;0.000;0.000;2023-02-25T22:04:31;4.28;;;2.53;;
48777;SDS011;34578;0.000;0.000;2023-02-25T22:09:31;6.43;;;3.20;;
48777;SDS011;34578;0.000;0.000;2023-02-25T22:14:31;3.70;;;2.37;;
48777;SDS011;34578;0.000;0.000;2023-02-25T22:19:32;4.57;;;2.33;;
48777;SDS011;34578;0.000;0.000;2023-02-25T22:24:32;3.13;;;1.97;;
48777;SDS011;34578;0.000;0.000;2023-02-25T22:29:33;3.85;;;2.25;;
48777;SDS011;34578;0.000;0.000;2023-02-25T22:34:33;2.70;;;1.93;;
48777;SDS011;34578;0.000;0.000;2023-02-25T22:39:34;2.45;;;1.70;;
48777;SDS011;34578;0.000;0.000;2023-02-25T22:44:34;2.83;;;1.83;;
48777;SDS011;34578;0.000;0.000;2023-02-25T22:49:34;2.73;;;1.77;;
48777;SDS011;34578;0.000;0.000;2023-02-25T22:54:35;5.20;;;2.43;;
48777;SDS011;34578;0.000;0.000;2023-02-25T22:59:35;4.65;;;2.25;;
48777;SDS011;34578;0.000;0.000;2023-02-25T23:04:35;2.90;;;1.93;;
48777;SDS011;34578;0.000;0.000;2023-02-25T23:09:36;4.50;;;2.20;;
48777;SDS011;34578;0.000;0.000;2023-02-25T23:14:36;4.23;;;2.20;;
48777;SDS011;34578;0.000;0.000;2023-02-25T23:19:37;3.53;;;2.00;;
48777;SDS011;34578;0.000;0.000;2023-02-25T23:24:37;3.33;;;2.63;;
48777;SDS011;34578;0.000;0.000;2023-02-25T23:29:37;4.17;;;1.80;;
48777;SDS011;34578;0.000;0.000;2023-02-25T23:34:38;3.03;;;1.60;;
48777;SDS011;34578;0.000;0.000;2023-02-25T23:39:38;2.83;;;1.75;;
48777;SDS011;34578;0.000;0.000;2023-02-25T23:44:38;4.60;;;1.63;;
48777;SDS011;34578;0.000;0.000;2023-02-25T23:49:39;4.20;;;2.83;;
48777;SDS011;34578;0.000;0.000;2023-02-25T23:54:39;2.87;;;1.50;;
48777;SDS011;34578;0.000;0.000;2023-02-25T23:59:40;2.00;;;1.40;;
